Time;durP1;ratioP1;P1;durP2;ratioP2;P2;SDS_P1;SDS_P2;PMS_P1;PMS_P2;Temp;Humidity;BMP_temperature;BMP_pressure;BME280_temperature;BME280_humidity;BME280_pressure;Samples;Min_cycle;Max_cycle;Signal;HPM_P1;HPM_P2
2023/05/09 00:01:11;;;;;;;4.00;1.83;;;;;;;;;;5070595;28;20032;-77
2023/05/09 00:03:38;;;;;;;4.22;2.10;;;;;;;;;;5070136;28;20072;-77
2023/05/09 00:06:04;;;;;;;3.97;2.00;;;;;;;;;;5036999;28;20435;-77
2023/05/09 00:08:29;;;;;;;6.63;2.28;;;;;;;;;;5036869;28;20465;-77
2023/05/09 00:10:54;;;;;;;3.65;1.75;;;;;;;;;;5055029;28;20029;-77
2023/05/09 00:13:20;;;;;;;5.35;2.88;;;;;;;;;;5020431;28;20025;-78
2023/05/09 00:15:45;;;;;;;2.72;1.88;;;;;;;;;;5020462;28;20500;-78
2023/05/09 00:18:13;;;;;;;6.55;2.80;;;;;;;;;;5036941;28;20078;-79
2023/05/09 00:20:39;;;;;;;5.15;2.80;;;;;;;;;;5054491;28;20064;-78
2023/05/09 00:23:05;;;;;;;4.55;2.92;;;;;;;;;;5020131;28;20033;-78
2023/05/09 00:25:30;;;;;;;5.63;3.05;;;;;;;;;;5020392;28;20033;-77
2023/05/09 00:27:56;;;;;;;4.18;2.55;;;;;;;;;;5020112;28;20116;-77
2023/05/09 00:30:22;;;;;;;8.43;2.92;;;;;;;;;;5036540;28;20107;-78
2023/05/09 00:32:47;;;;;;;5.00;2.88;;;;;;;;;;5036660;28;20029;-77
2023/05/09 00:35:12;;;;;;;7.60;3.47;;;;;;;;;;5054719;28;20036;-77
2023/05/09 00:37:38;;;;;;;4.65;2.83;;;;;;;;;;5019821;28;20039;-77
2023/05/09 00:40:05;;;;;;;9.20;3.58;;;;;;;;;;5020006;28;20032;-78
2023/05/09 00:42:30;;;;;;;9.18;3.58;;;;;;;;;;5070075;28;20112;-78
2023/05/09 00:44:56;;;;;;;4.72;2.67;;;;;;;;;;5020052;28;20052;-78
2023/05/09 00:47:22;;;;;;;7.43;3.22;;;;;;;;;;5069696;28;20017;-78
2023/05/09 00:49:47;;;;;;;6.30;3.42;;;;;;;;;;5003624;28;20032;-77
2023/05/09 00:52:13;;;;;;;9.73;4.10;;;;;;;;;;5003386;28;20021;-77
2023/05/09 00:54:39;;;;;;;10.60;4.20;;;;;;;;;;5003641;28;20108;-77
2023/05/09 00:57:04;;;;;;;6.85;3.53;;;;;;;;;;5036267;28;20025;-78
2023/05/09 00:59:29;;;;;;;5.50;3.30;;;;;;;;;;5019689;28;20017;-78
2023/05/09 01:01:55;;;;;;;8.40;3.67;;;;;;;;;;5036187;28;20466;-77
2023/05/09 01:04:20;;;;;;;6.35;3.50;;;;;;;;;;5019665;28;20052;-78
2023/05/09 01:06:58;;;;;;;6.75;3.83;;;;;;;;;;5035767;28;20051;-78
2023/05/09 01:09:52;;;;;;;7.80;4.00;;;;;;;;;;5054060;28;20037;-77
2023/05/09 01:12:20;;;;;;;5.90;3.40;;;;;;;;;;5035902;28;20028;-78
2023/05/09 01:15:00;;;;;;;7.35;3.58;;;;;;;;;;5053909;28;20029;-79
2023/05/09 01:17:26;;;;;;;6.43;3.55;;;;;;;;;;5036451;28;20040;-77
2023/05/09 01:20:04;;;;;;;9.07;4.20;;;;;;;;;;5053566;28;20099;-78
2023/05/09 01:22:33;;;;;;;6.13;3.70;;;;;;;;;;5035890;28;20366;-78
2023/05/09 01:25:06;;;;;;;5.55;3.35;;;;;;;;;;5003898;28;20099;-78
2023/05/09 01:27:56;;;;;;;5.03;3.15;;;;;;;;;;5035809;28;20035;-78
2023/05/09 01:30:21;;;;;;;7.10;3.50;;;;;;;;;;5051452;28;20036;-78
2023/05/09 01:32:48;;;;;;;5.47;3.42;;;;;;;;;;5003081;28;20029;-78
2023/05/09 01:35:14;;;;;;;5.75;3.10;;;;;;;;;;5019311;28;20037;-78
2023/05/09 01:37:42;;;;;;;5.05;3.33;;;;;;;;;;5019396;28;20029;-77
2023/05/09 01:40:15;;;;;;;11.85;3.70;;;;;;;;;;5035866;28;20036;-78
2023/05/09 01:42:56;;;;;;;9.00;3.53;;;;;;;;;;5019727;28;20067;-77
2023/05/09 01:45:21;;;;;;;;;;;;;;;;;;5021135;28;20033;-76
2023/05/09 01:47:46;;;;;;;5.82;3.33;;;;;;;;;;5035619;28;19912;-76
2023/05/09 01:50:12;;;;;;;6.60;3.53;;;;;;;;;;5002772;28;20029;-77
2023/05/09 01:52:38;;;;;;;6.45;3.67;;;;;;;;;;5003222;28;20028;-77
2023/05/09 01:55:04;;;;;;;7.40;4.55;;;;;;;;;;5019259;28;20031;-78
2023/05/09 01:57:30;;;;;;;7.47;4.32;;;;;;;;;;5019681;28;20025;-77
2023/05/09 01:59:55;;;;;;;8.93;4.05;;;;;;;;;;5018995;28;20060;-77
2023/05/09 02:02:21;;;;;;;12.15;4.60;;;;;;;;;;5002811;28;20045;-78
2023/05/09 02:04:46;;;;;;;10.10;4.65;;;;;;;;;;5035508;28;20032;-78
2023/05/09 02:07:11;;;;;;;10.48;4.95;;;;;;;;;;5035385;28;20043;-77
2023/05/09 02:09:37;;;;;;;9.52;5.20;;;;;;;;;;5035582;28;20032;-77
2023/05/09 02:12:03;;;;;;;10.52;4.95;;;;;;;;;;5054873;28;20036;-77
2023/05/09 02:14:29;;;;;;;10.50;5.28;;;;;;;;;;5022948;28;20025;-77
2023/05/09 02:16:55;;;;;;;15.40;5.70;;;;;;;;;;5039257;28;20086;-77
2023/05/09 02:19:20;;;;;;;12.50;5.35;;;;;;;;;;5038842;28;20470;-78
2023/05/09 02:21:45;;;;;;;8.90;5.13;;;;;;;;;;5056882;28;20021;-78
2023/05/09 02:24:11;;;;;;;8.88;4.90;;;;;;;;;;5022553;28;20359;-77
2023/05/09 02:26:36;;;;;;;9.82;5.30;;;;;;;;;;5038912;28;20035;-78
2023/05/09 02:29:02;;;;;;;9.57;5.45;;;;;;;;;;5057435;28;20029;-77
2023/05/09 02:31:27;;;;;;;14.05;5.50;;;;;;;;;;4999403;28;20064;-77
2023/05/09 02:33:53;;;;;;;11.70;5.82;;;;;;;;;;4986486;28;20033;-77
2023/05/09 02:36:18;;;;;;;17.05;6.30;;;;;;;;;;5002877;28;20086;-78
2023/05/09 02:38:44;;;;;;;13.70;6.43;;;;;;;;;;4986577;28;20025;-77
2023/05/09 02:41:16;;;;;;;19.00;8.05;;;;;;;;;;5002714;28;20029;-78
2023/05/09 02:43:41;;;;;;;17.50;7.40;;;;;;;;;;5019011;28;20029;-76
2023/05/09 02:46:07;;;;;;;20.85;8.50;;;;;;;;;;4986405;28;20034;-77
2023/05/09 02:48:32;;;;;;;18.33;7.25;;;;;;;;;;5018710;28;20032;-77
2023/05/09 02:50:58;;;;;;;20.23;8.50;;;;;;;;;;5018682;28;20033;-78
2023/05/09 02:53:23;;;;;;;18.13;8.52;;;;;;;;;;5018761;28;20075;-78
2023/05/09 02:55:49;;;;;;;28.23;10.40;;;;;;;;;;5002390;28;20520;-78
2023/05/09 02:58:14;;;;;;;25.55;11.05;;;;;;;;;;5018745;28;20030;-78
2023/05/09 03:00:40;;;;;;;24.80;10.18;;;;;;;;;;5018776;28;20132;-78
2023/05/09 03:03:05;;;;;;;28.15;12.13;;;;;;;;;;5018328;28;20052;-79
2023/05/09 03:05:31;;;;;;;25.55;12.57;;;;;;;;;;5036127;28;20037;-77
2023/05/09 03:07:57;;;;;;;27.33;12.02;;;;;;;;;;5036228;28;20032;-78
2023/05/09 03:10:22;;;;;;;26.90;11.15;;;;;;;;;;5018508;28;20116;-78
2023/05/09 03:12:47;;;;;;;21.17;10.02;;;;;;;;;;5034860;28;20075;-78
2023/05/09 03:15:13;;;;;;;27.35;11.52;;;;;;;;;;5034801;28;20439;-78
2023/05/09 03:17:38;;;;;;;32.28;11.23;;;;;;;;;;5018149;28;20029;-77
2023/05/09 03:20:05;;;;;;;25.13;10.27;;;;;;;;;;5035016;28;20029;-76
2023/05/09 03:22:30;;;;;;;22.23;9.98;;;;;;;;;;5033907;28;20045;-77
2023/05/09 03:24:56;;;;;;;23.42;9.02;;;;;;;;;;5017754;28;20030;-78
2023/05/09 03:27:21;;;;;;;28.77;10.43;;;;;;;;;;5002572;28;20033;-78
2023/05/09 03:29:47;;;;;;;30.88;10.90;;;;;;;;;;5017864;28;20033;-77
2023/05/09 03:32:12;;;;;;;25.27;11.63;;;;;;;;;;5018990;28;20297;-77
2023/05/09 03:34:38;;;;;;;24.85;10.90;;;;;;;;;;5055366;28;20035;-78
2023/05/09 03:37:03;;;;;;;30.40;11.65;;;;;;;;;;5037610;28;20035;-77
2023/05/09 03:39:28;;;;;;;28.25;11.00;;;;;;;;;;5021275;28;20443;-77
2023/05/09 03:41:54;;;;;;;24.95;11.27;;;;;;;;;;5037583;28;20132;-77
2023/05/09 03:44:19;;;;;;;25.05;10.63;;;;;;;;;;5037755;28;20068;-77
2023/05/09 03:46:45;;;;;;;26.70;11.52;;;;;;;;;;5020879;28;20119;-79
2023/05/09 03:49:10;;;;;;;24.63;11.13;;;;;;;;;;5037673;28;20370;-78
2023/05/09 03:51:36;;;;;;;28.88;11.02;;;;;;;;;;5037359;28;20094;-77
2023/05/09 03:54:01;;;;;;;25.92;10.43;;;;;;;;;;5037367;28;20355;-78
2023/05/09 03:56:26;;;;;;;20.30;9.23;;;;;;;;;;5037304;28;20033;-78
2023/05/09 03:58:52;;;;;;;25.83;10.48;;;;;;;;;;5020878;28;20028;-78
2023/05/09 04:01:17;;;;;;;23.17;9.80;;;;;;;;;;5020364;28;20033;-78
2023/05/09 04:03:43;;;;;;;29.90;11.43;;;;;;;;;;5021014;28;20405;-76
2023/05/09 04:06:08;;;;;;;21.27;10.20;;;;;;;;;;5020790;28;20047;-77
2023/05/09 04:08:34;;;;;;;36.97;14.18;;;;;;;;;;5004132;28;20032;-77
2023/05/09 04:10:59;;;;;;;26.83;11.23;;;;;;;;;;5037189;28;20029;-78
2023/05/09 04:13:25;;;;;;;22.77;10.82;;;;;;;;;;5037419;28;20033;-78
2023/05/09 04:15:50;;;;;;;23.88;9.75;;;;;;;;;;5036536;28;20044;-78
2023/05/09 04:18:16;;;;;;;34.03;10.88;;;;;;;;;;5036695;28;20110;-78
2023/05/09 04:20:41;;;;;;;27.65;11.20;;;;;;;;;;5054518;28;20434;-77
2023/05/09 04:23:07;;;;;;;28.10;11.48;;;;;;;;;;5004222;28;20123;-76
2023/05/09 04:25:33;;;;;;;30.17;12.45;;;;;;;;;;5036827;28;20071;-76
2023/05/09 04:27:58;;;;;;;29.67;11.40;;;;;;;;;;5037997;28;20029;-85
2023/05/09 04:30:25;;;;;;;34.08;12.10;;;;;;;;;;5007516;28;20086;-88
2023/05/09 04:32:52;;;;;;;25.70;11.93;;;;;;;;;;5022135;28;20083;-84
2023/05/09 04:35:17;;;;;;;29.02;12.32;;;;;;;;;;5015946;28;20083;-77
2023/05/09 04:37:43;;;;;;;27.25;11.93;;;;;;;;;;5024208;28;20033;-78
2023/05/09 04:40:09;;;;;;;22.23;10.95;;;;;;;;;;5035291;28;20128;-76
2023/05/09 04:42:34;;;;;;;30.48;11.48;;;;;;;;;;5050419;28;20075;-78
2023/05/09 04:45:00;;;;;;;19.40;9.50;;;;;;;;;;5017878;28;20060;-77
2023/05/09 04:47:25;;;;;;;27.85;10.98;;;;;;;;;;5035279;28;20031;-78
2023/05/09 04:49:51;;;;;;;21.20;10.05;;;;;;;;;;5053173;28;20133;-77
2023/05/09 04:52:16;;;;;;;20.33;8.57;;;;;;;;;;5013237;28;20562;-78
2023/05/09 04:54:42;;;;;;;27.10;12.13;;;;;;;;;;5049474;28;20033;-78
2023/05/09 04:57:09;;;;;;;27.73;10.75;;;;;;;;;;5030600;28;20097;-77
2023/05/09 04:59:37;;;;;;;25.63;11.18;;;;;;;;;;5022307;28;20067;-78
2023/05/09 05:02:02;;;;;;;29.55;11.18;;;;;;;;;;5040371;28;20135;-77
2023/05/09 05:04:28;;;;;;;25.42;10.55;;;;;;;;;;5008695;28;20123;-78
2023/05/09 05:06:53;;;;;;;28.77;9.82;;;;;;;;;;5006732;28;20040;-77
2023/05/09 05:09:19;;;;;;;22.77;10.20;;;;;;;;;;4995384;28;20637;-78
2023/05/09 05:11:44;;;;;;;23.85;9.88;;;;;;;;;;5026479;28;20025;-78
2023/05/09 05:14:10;;;;;;;31.85;10.05;;;;;;;;;;5045138;28;20611;-76
2023/05/09 05:16:35;;;;;;;20.52;9.93;;;;;;;;;;5045465;28;20052;-76
2023/05/09 05:19:00;;;;;;;26.88;10.50;;;;;;;;;;5012847;28;20044;-76
2023/05/09 05:21:26;;;;;;;32.97;11.02;;;;;;;;;;5028177;28;20075;-76
2023/05/09 05:23:51;;;;;;;24.25;9.85;;;;;;;;;;5045437;28;20116;-77
2023/05/09 05:26:17;;;;;;;33.38;11.02;;;;;;;;;;5047732;28;20099;-76
2023/05/09 05:28:42;;;;;;;24.83;10.13;;;;;;;;;;5029792;28;20112;-77
2023/05/09 05:31:09;;;;;;;24.52;9.60;;;;;;;;;;5047996;28;20491;-77
2023/05/09 05:33:34;;;;;;;22.83;10.43;;;;;;;;;;5031996;28;21500;-76
2023/05/09 05:36:00;;;;;;;28.13;10.48;;;;;;;;;;5043038;28;20087;-77
2023/05/09 05:38:25;;;;;;;21.95;8.75;;;;;;;;;;5027778;28;20414;-76
2023/05/09 05:40:51;;;;;;;21.60;9.32;;;;;;;;;;5033256;28;20028;-78
2023/05/09 05:43:16;;;;;;;25.55;10.32;;;;;;;;;;5051783;28;20021;-77
2023/05/09 05:45:42;;;;;;;27.63;10.48;;;;;;;;;;5051845;28;20028;-77
2023/05/09 05:48:08;;;;;;;28.63;9.23;;;;;;;;;;5051217;28;20098;-75
2023/05/09 05:50:35;;;;;;;26.52;10.38;;;;;;;;;;5042484;28;20060;-76
2023/05/09 05:53:00;;;;;;;28.02;10.98;;;;;;;;;;5054507;28;20028;-76
2023/05/09 05:55:26;;;;;;;31.15;10.65;;;;;;;;;;5055170;28;20024;-78
2023/05/09 05:57:51;;;;;;;24.08;10.38;;;;;;;;;;5034466;28;20174;-77
2023/05/09 06:00:17;;;;;;;20.20;9.00;;;;;;;;;;5024103;28;20044;-77
2023/05/09 06:02:51;;;;;;;30.00;10.27;;;;;;;;;;5018544;28;20147;-78
2023/05/09 06:05:17;;;;;;;29.17;10.90;;;;;;;;;;5018478;28;20025;-78
2023/05/09 06:07:43;;;;;;;29.17;10.95;;;;;;;;;;5031917;28;20374;-77
2023/05/09 06:10:08;;;;;;;22.42;10.73;;;;;;;;;;5033551;28;20037;-77
2023/05/09 06:12:35;;;;;;;28.45;11.18;;;;;;;;;;5032372;28;20028;-76
2023/05/09 06:15:03;;;;;;;20.65;9.07;;;;;;;;;;5012938;28;20118;-76
2023/05/09 06:17:29;;;;;;;33.15;8.93;;;;;;;;;;5016512;28;20122;-77
2023/05/09 06:19:54;;;;;;;22.92;9.55;;;;;;;;;;5032934;28;20503;-76
2023/05/09 06:22:20;;;;;;;20.38;8.85;;;;;;;;;;5028265;28;20478;-74
2023/05/09 06:24:45;;;;;;;19.95;8.10;;;;;;;;;;5036299;28;20427;-73
2023/05/09 06:27:11;;;;;;;23.55;9.43;;;;;;;;;;5035100;28;20037;-74
2023/05/09 06:29:36;;;;;;;30.30;10.05;;;;;;;;;;5036378;28;20029;-75
2023/05/09 06:32:01;;;;;;;25.48;9.38;;;;;;;;;;5040158;28;20029;-77
2023/05/09 06:34:27;;;;;;;21.77;8.82;;;;;;;;;;5027227;28;20041;-77
2023/05/09 06:36:52;;;;;;;24.05;10.15;;;;;;;;;;5018774;28;20057;-75
2023/05/09 06:39:18;;;;;;;19.88;9.02;;;;;;;;;;5022149;28;20069;-76
2023/05/09 06:41:43;;;;;;;23.60;9.25;;;;;;;;;;5009858;28;20021;-79
2023/05/09 06:44:09;;;;;;;24.13;9.35;;;;;;;;;;5041933;28;20060;-77
2023/05/09 06:46:34;;;;;;;17.83;8.38;;;;;;;;;;5041437;28;20044;-77
2023/05/09 06:49:04;;;;;;;25.45;10.32;;;;;;;;;;5021660;28;20030;-79
2023/05/09 06:51:30;;;;;;;27.73;9.30;;;;;;;;;;5040415;28;20033;-77
2023/05/09 06:53:55;;;;;;;25.58;9.98;;;;;;;;;;5041463;28;20127;-77
2023/05/09 06:56:30;;;;;;;18.38;7.28;;;;;;;;;;5043366;28;20025;-78
2023/05/09 06:58:55;;;;;;;21.42;8.98;;;;;;;;;;5046020;28;20132;-75
2023/05/09 07:01:21;;;;;;;23.33;8.77;;;;;;;;;;5023473;28;20069;-78
2023/05/09 07:03:46;;;;;;;21.80;9.20;;;;;;;;;;5038581;28;20120;-76
2023/05/09 07:06:12;;;;;;;22.30;8.55;;;;;;;;;;5038780;28;20033;-76
2023/05/09 07:08:37;;;;;;;18.73;7.60;;;;;;;;;;5039736;28;20037;-77
2023/05/09 07:11:04;;;;;;;24.50;9.20;;;;;;;;;;5037693;28;20021;-77
2023/05/09 07:13:29;;;;;;;18.55;8.15;;;;;;;;;;5017453;28;20045;-79
2023/05/09 07:15:55;;;;;;;20.73;8.63;;;;;;;;;;5022824;28;20025;-79
2023/05/09 07:18:20;;;;;;;18.25;7.82;;;;;;;;;;5018894;28;20056;-77
2023/05/09 07:20:46;;;;;;;19.70;7.60;;;;;;;;;;5028034;28;20069;-76
2023/05/09 07:23:14;;;;;;;15.10;7.03;;;;;;;;;;5017676;28;20044;-75
2023/05/09 07:25:39;;;;;;;26.20;9.02;;;;;;;;;;4993320;28;20033;-77
2023/05/09 07:28:05;;;;;;;21.05;7.57;;;;;;;;;;5004867;28;20109;-76
2023/05/09 07:30:31;;;;;;;23.30;8.43;;;;;;;;;;5039585;28;20025;-75
2023/05/09 07:32:56;;;;;;;21.73;8.43;;;;;;;;;;5041251;28;20088;-79
2023/05/09 07:35:22;;;;;;;28.23;9.15;;;;;;;;;;5021389;28;20116;-75
2023/05/09 07:37:48;;;;;;;18.05;8.13;;;;;;;;;;5022530;28;20092;-75
2023/05/09 07:40:13;;;;;;;25.70;9.20;;;;;;;;;;5034708;28;20100;-77
2023/05/09 07:42:39;;;;;;;21.13;8.65;;;;;;;;;;5036427;28;20149;-77
2023/05/09 07:45:07;;;;;;;17.60;8.25;;;;;;;;;;5017093;28;20025;-77
2023/05/09 07:47:32;;;;;;;17.13;7.93;;;;;;;;;;5010949;28;20038;-75
2023/05/09 07:49:58;;;;;;;15.75;7.15;;;;;;;;;;5015873;28;20093;-77
2023/05/09 07:52:23;;;;;;;17.02;7.63;;;;;;;;;;5004809;28;20055;-78
2023/05/09 07:54:49;;;;;;;16.52;7.97;;;;;;;;;;5015200;28;20025;-78
2023/05/09 07:57:17;;;;;;;22.77;8.05;;;;;;;;;;5018560;28;20041;-77
2023/05/09 07:59:43;;;;;;;24.48;8.38;;;;;;;;;;5033394;28;20025;-76
2023/05/09 08:02:08;;;;;;;18.88;8.07;;;;;;;;;;5040066;28;20052;-79
2023/05/09 08:04:37;;;;;;;16.23;7.07;;;;;;;;;;5056928;28;20611;-75
2023/05/09 08:07:03;;;;;;;28.80;8.02;;;;;;;;;;5039495;28;20051;-78
2023/05/09 08:09:31;;;;;;;24.30;8.52;;;;;;;;;;5024311;28;20025;-77
2023/05/09 08:12:11;;;;;;;19.15;8.23;;;;;;;;;;5022924;28;20071;-78
2023/05/09 08:14:37;;;;;;;27.45;9.02;;;;;;;;;;5039769;28;20086;-79
2023/05/09 08:17:02;;;;;;;22.88;9.10;;;;;;;;;;5021441;28;20110;-78
2023/05/09 08:19:28;;;;;;;20.98;8.75;;;;;;;;;;5039223;28;20036;-78
2023/05/09 08:21:54;;;;;;;19.23;8.48;;;;;;;;;;5025095;28;20092;-78
2023/05/09 08:24:20;;;;;;;20.60;8.00;;;;;;;;;;5041316;28;20033;-77
2023/05/09 08:26:45;;;;;;;22.55;9.25;;;;;;;;;;5043496;28;20048;-78
2023/05/09 08:29:11;;;;;;;18.15;8.10;;;;;;;;;;5011676;28;20033;-78
2023/05/09 08:31:36;;;;;;;20.42;8.30;;;;;;;;;;5044876;28;20039;-77
2023/05/09 08:34:02;;;;;;;18.55;8.20;;;;;;;;;;5047559;28;20031;-78
2023/05/09 08:36:27;;;;;;;19.77;8.52;;;;;;;;;;5046828;28;20025;-80
2023/05/09 08:38:53;;;;;;;14.98;7.18;;;;;;;;;;5065674;28;20036;-77
2023/05/09 08:41:19;;;;;;;20.60;9.32;;;;;;;;;;5065443;28;20029;-78
2023/05/09 08:43:45;;;;;;;18.00;8.60;;;;;;;;;;5044764;28;20411;-78
2023/05/09 08:46:10;;;;;;;19.02;8.07;;;;;;;;;;5045335;28;20040;-79
2023/05/09 08:48:36;;;;;;;20.23;8.38;;;;;;;;;;5008041;28;20182;-78
2023/05/09 08:51:05;;;;;;;22.42;9.38;;;;;;;;;;5055111;28;20044;-79
2023/05/09 08:53:31;;;;;;;22.65;9.50;;;;;;;;;;5014454;28;20024;-78
2023/05/09 08:56:08;;;;;;;24.40;9.77;;;;;;;;;;5027363;28;20025;-78
2023/05/09 08:58:35;;;;;;;19.67;8.35;;;;;;;;;;5044527;28;20033;-80
2023/05/09 09:01:26;;;;;;;22.33;8.43;;;;;;;;;;5044265;28;20032;-79
2023/05/09 09:04:15;;;;;;;18.88;8.43;;;;;;;;;;5040598;28;20068;-80
2023/05/09 09:06:41;;;;;;;20.42;8.77;;;;;;;;;;5030790;28;20061;-79
2023/05/09 09:09:10;;;;;;;15.73;7.72;;;;;;;;;;5042821;28;20029;-79
2023/05/09 09:11:36;;;;;;;18.33;8.88;;;;;;;;;;5027226;28;20032;-79
2023/05/09 09:14:12;;;;;;;20.40;9.70;;;;;;;;;;5061307;28;20024;-79
2023/05/09 09:16:37;;;;;;;25.92;9.65;;;;;;;;;;5025241;28;20132;-80
2023/05/09 09:19:03;;;;;;;24.58;8.95;;;;;;;;;;5026256;28;20052;-81
2023/05/09 09:21:30;;;;;;;19.77;9.02;;;;;;;;;;5059000;28;20298;-80
2023/05/09 09:23:56;;;;;;;18.23;7.72;;;;;;;;;;5034767;28;20025;-79
2023/05/09 09:26:23;;;;;;;20.27;8.70;;;;;;;;;;5030693;28;20060;-79
2023/05/09 09:28:49;;;;;;;18.98;8.88;;;;;;;;;;5047757;28;20039;-77
2023/05/09 09:31:22;;;;;;;22.20;9.27;;;;;;;;;;5061929;28;20080;-81
2023/05/09 09:33:51;;;;;;;21.42;8.85;;;;;;;;;;5047173;28;20374;-77
2023/05/09 09:36:36;;;;;;;28.02;9.27;;;;;;;;;;5050349;28;20017;-81
2023/05/09 09:39:06;;;;;;;24.00;7.78;;;;;;;;;;5048977;28;20052;-80
2023/05/09 09:41:35;;;;;;;21.48;8.85;;;;;;;;;;5046417;28;20098;-80
2023/05/09 09:44:10;;;;;;;23.13;7.80;;;;;;;;;;5062002;28;20096;-78
2023/05/09 09:46:52;;;;;;;19.08;8.18;;;;;;;;;;5044943;28;20056;-80
2023/05/09 09:49:20;;;;;;;19.48;8.85;;;;;;;;;;5045619;28;20029;-80
2023/05/09 09:51:54;;;;;;;19.65;8.75;;;;;;;;;;5027650;28;20192;-79
2023/05/09 09:54:21;;;;;;;17.65;7.78;;;;;;;;;;5024970;28;20067;-81
2023/05/09 09:56:53;;;;;;;16.55;7.97;;;;;;;;;;5025875;28;20040;-81
2023/05/09 09:59:26;;;;;;;22.60;8.77;;;;;;;;;;5043911;28;20036;-79
2023/05/09 10:01:55;;;;;;;21.38;8.27;;;;;;;;;;5009401;28;20536;-80
2023/05/09 10:04:21;;;;;;;14.05;7.20;;;;;;;;;;5042246;28;20354;-80
2023/05/09 10:07:03;;;;;;;19.05;8.23;;;;;;;;;;5060116;28;20033;-79
2023/05/09 10:09:30;;;;;;;17.52;7.63;;;;;;;;;;5028126;28;20047;-79
2023/05/09 10:11:56;;;;;;;20.15;8.68;;;;;;;;;;5056631;28;20049;-81
2023/05/09 10:14:25;;;;;;;20.33;8.93;;;;;;;;;;5023527;28;20025;-82
2023/05/09 10:16:51;;;;;;;21.42;8.57;;;;;;;;;;5021884;28;20419;-81
2023/05/09 10:19:18;;;;;;;24.80;9.77;;;;;;;;;;5022157;28;20057;-80
2023/05/09 10:21:52;;;;;;;25.42;8.75;;;;;;;;;;5057946;28;20025;-82
2023/05/09 10:24:28;;;;;;;19.42;8.70;;;;;;;;;;5042320;28;20025;-83
2023/05/09 10:27:03;;;;;;;19.77;8.48;;;;;;;;;;5026345;28;20366;-80
2023/05/09 10:29:30;;;;;;;18.52;8.25;;;;;;;;;;5029073;28;20378;-81
2023/05/09 10:31:57;;;;;;;17.75;8.40;;;;;;;;;;5043427;28;20025;-81
2023/05/09 10:34:23;;;;;;;23.08;9.25;;;;;;;;;;5046683;28;20036;-83
2023/05/09 10:36:49;;;;;;;22.35;7.80;;;;;;;;;;5031430;28;20036;-82
2023/05/09 10:39:14;;;;;;;19.05;7.68;;;;;;;;;;5065896;28;20381;-82
2023/05/09 10:41:40;;;;;;;20.08;8.35;;;;;;;;;;5047145;28;20080;-82
2023/05/09 10:44:05;;;;;;;16.20;7.82;;;;;;;;;;5014656;28;20029;-83
2023/05/09 10:46:31;;;;;;;16.13;7.90;;;;;;;;;;5029897;28;20044;-81
2023/05/09 10:48:57;;;;;;;15.38;8.07;;;;;;;;;;5060795;28;20090;-82
2023/05/09 10:51:23;;;;;;;13.00;6.70;;;;;;;;;;5047506;28;20029;-83
2023/05/09 10:53:49;;;;;;;15.13;7.47;;;;;;;;;;5028394;28;20075;-83
2023/05/09 10:56:35;;;;;;;13.32;7.43;;;;;;;;;;5044502;28;20025;-82
2023/05/09 10:59:00;;;;;;;16.83;7.38;;;;;;;;;;5061279;28;20139;-82
2023/05/09 11:01:33;;;;;;;15.18;7.30;;;;;;;;;;5062762;28;20060;-83
2023/05/09 11:03:59;;;;;;;17.67;7.25;;;;;;;;;;5044250;28;20064;-80
2023/05/09 11:06:48;;;;;;;16.95;8.38;;;;;;;;;;5044602;28;20048;-81
2023/05/09 11:09:37;;;;;;;16.52;7.70;;;;;;;;;;5024129;28;20205;-83
2023/05/09 11:12:06;;;;;;;17.60;8.03;;;;;;;;;;5023605;28;20109;-81
2023/05/09 11:14:45;;;;;;;16.33;7.45;;;;;;;;;;5036082;28;20469;-82
2023/05/09 11:17:19;;;;;;;20.50;7.75;;;;;;;;;;5024434;28;20037;-79
2023/05/09 11:19:45;;;;;;;22.05;8.82;;;;;;;;;;5043077;28;20591;-82
2023/05/09 11:22:25;;;;;;;23.45;9.43;;;;;;;;;;5061275;28;20021;-80
2023/05/09 11:24:52;;;;;;;22.73;8.35;;;;;;;;;;5036670;28;20027;-80
2023/05/09 11:27:18;;;;;;;20.58;8.13;;;;;;;;;;5035682;28;20654;-81
2023/05/09 11:29:54;;;;;;;24.10;8.30;;;;;;;;;;5046844;28;20033;-85
2023/05/09 11:32:52;;;;;;;16.50;8.23;;;;;;;;;;5025160;28;20033;-90
2023/05/09 11:35:59;;;;;;;20.65;8.07;;;;;;;;;;5042663;28;20032;-90
2023/05/09 11:39:03;;;;;;;15.35;7.03;;;;;;;;;;4960168;28;20461;-89
2023/05/09 11:41:42;;;;;;;15.98;7.38;;;;;;;;;;4942031;29;20047;-88
2023/05/09 11:44:55;;;;;;;15.57;6.88;;;;;;;;;;4940725;29;20039;-88
2023/05/09 11:50:11;;;;;;;14.48;7.25;;;;;;;;;;5046363;28;20049;-77
2023/05/09 11:52:40;;;;;;;12.73;6.68;;;;;;;;;;5031861;28;20032;-78
2023/05/09 11:55:09;;;;;;;17.17;7.25;;;;;;;;;;5032258;28;20060;-77
2023/05/09 11:57:38;;;;;;;13.23;7.63;;;;;;;;;;5031782;28;20201;-78
2023/05/09 12:00:09;;;;;;;21.10;8.02;;;;;;;;;;5030861;28;20052;-77
2023/05/09 12:02:35;;;;;;;15.13;6.78;;;;;;;;;;5036431;28;20029;-76
2023/05/09 12:05:11;;;;;;;13.18;6.47;;;;;;;;;;5034554;28;20062;-78
2023/05/09 12:07:38;;;;;;;12.32;6.43;;;;;;;;;;5044454;28;20045;-78
2023/05/09 12:10:14;;;;;;;26.23;6.28;;;;;;;;;;5035663;28;20041;-80
2023/05/09 12:12:47;;;;;;;16.63;7.00;;;;;;;;;;5036820;28;20108;-82
2023/05/09 12:15:13;;;;;;;49.08;18.55;;;;;;;;;;5037034;28;20047;-81
2023/05/09 12:17:39;;;;;;;16.90;8.57;;;;;;;;;;5053903;28;20534;-80
2023/05/09 12:20:05;;;;;;;23.15;7.70;;;;;;;;;;5027225;28;20026;-80
2023/05/09 12:22:31;;;;;;;23.48;7.53;;;;;;;;;;5034807;28;20070;-82
2023/05/09 12:25:01;;;;;;;18.13;7.25;;;;;;;;;;5017670;28;20431;-81
2023/05/09 12:27:30;;;;;;;22.85;6.68;;;;;;;;;;5034516;28;20033;-81
2023/05/09 12:29:56;;;;;;;15.27;7.10;;;;;;;;;;5043703;28;20029;-81
2023/05/09 12:32:21;;;;;;;18.73;6.75;;;;;;;;;;5053067;28;20071;-80
2023/05/09 12:34:47;;;;;;;15.52;6.88;;;;;;;;;;5035015;28;20037;-81
2023/05/09 12:37:17;;;;;;;12.70;6.72;;;;;;;;;;5003431;28;20028;-81
2023/05/09 12:40:01;;;;;;;19.67;7.87;;;;;;;;;;5036890;28;20025;-81
2023/05/09 12:42:30;;;;;;;18.38;7.72;;;;;;;;;;5053559;28;20443;-82
2023/05/09 12:44:56;;;;;;;14.90;7.25;;;;;;;;;;5035572;28;20025;-82
2023/05/09 12:47:21;;;;;;;17.33;6.85;;;;;;;;;;5019011;28;20590;-83
2023/05/09 12:49:50;;;;;;;15.75;7.00;;;;;;;;;;5035244;28;20045;-82
2023/05/09 12:52:17;;;;;;;18.38;7.45;;;;;;;;;;5035476;28;20485;-82
2023/05/09 12:54:42;;;;;;;15.82;7.25;;;;;;;;;;5003575;28;20036;-82
2023/05/09 12:57:20;;;;;;;19.50;7.18;;;;;;;;;;5019158;28;20042;-82
2023/05/09 12:59:45;;;;;;;16.85;7.57;;;;;;;;;;5036826;28;20465;-82
2023/05/09 13:02:12;;;;;;;17.50;8.18;;;;;;;;;;5054791;28;20029;-82
2023/05/09 13:04:37;;;;;;;14.85;6.88;;;;;;;;;;5054291;28;20114;-83
2023/05/09 13:07:10;;;;;;;17.10;7.72;;;;;;;;;;5030250;28;20071;-83
2023/05/09 13:09:52;;;;;;;19.10;8.05;;;;;;;;;;5033009;28;20090;-84
2023/05/09 13:12:19;;;;;;;19.20;7.97;;;;;;;;;;5020255;28;20068;-81
2023/05/09 13:14:44;;;;;;;17.77;6.75;;;;;;;;;;5036438;28;20021;-83
2023/05/09 13:17:10;;;;;;;19.40;7.32;;;;;;;;;;5036215;28;20036;-83
2023/05/09 13:19:38;;;;;;;20.67;8.15;;;;;;;;;;5053873;28;20048;-82
2023/05/09 13:22:03;;;;;;;15.60;7.68;;;;;;;;;;5004286;28;20374;-81
2023/05/09 13:24:29;;;;;;;19.33;8.43;;;;;;;;;;5054147;28;20047;-81
2023/05/09 13:26:54;;;;;;;14.85;7.28;;;;;;;;;;5053930;28;20076;-82
2023/05/09 13:29:19;;;;;;;17.70;7.40;;;;;;;;;;5035689;28;20072;-82
2023/05/09 13:31:45;;;;;;;16.70;7.78;;;;;;;;;;5035042;28;20048;-81
2023/05/09 13:34:10;;;;;;;16.30;7.57;;;;;;;;;;5034655;28;20447;-82
2023/05/09 13:36:36;;;;;;;15.38;8.00;;;;;;;;;;5052710;28;20064;-82
2023/05/09 13:39:01;;;;;;;22.85;7.68;;;;;;;;;;5052785;28;20055;-81
2023/05/09 13:41:29;;;;;;;19.08;7.78;;;;;;;;;;5034499;28;20033;-83
2023/05/09 13:43:54;;;;;;;20.35;7.60;;;;;;;;;;5034599;28;20028;-82
2023/05/09 13:46:20;;;;;;;15.43;8.05;;;;;;;;;;5053861;28;20374;-82
2023/05/09 13:48:46;;;;;;;16.35;7.25;;;;;;;;;;5036022;28;20044;-82
2023/05/09 13:51:12;;;;;;;23.60;8.07;;;;;;;;;;5054312;28;20098;-82
2023/05/09 13:53:38;;;;;;;13.80;6.95;;;;;;;;;;5035976;28;20040;-81
2023/05/09 13:56:05;;;;;;;18.90;8.00;;;;;;;;;;5073525;28;20051;-82
2023/05/09 13:58:30;;;;;;;20.95;8.15;;;;;;;;;;5039311;28;20428;-82
2023/05/09 14:00:56;;;;;;;19.88;7.88;;;;;;;;;;5055840;28;20119;-83
2023/05/09 14:03:21;;;;;;;18.38;8.13;;;;;;;;;;5055754;28;20093;-83
2023/05/09 14:05:47;;;;;;;21.55;8.45;;;;;;;;;;5055941;28;20043;-82
2023/05/09 14:08:12;;;;;;;16.17;7.65;;;;;;;;;;5076061;28;20064;-82
2023/05/09 14:10:38;;;;;;;28.13;8.50;;;;;;;;;;5043303;28;20032;-83
2023/05/09 14:13:03;;;;;;;16.13;7.90;;;;;;;;;;5078317;28;20040;-81
2023/05/09 14:15:29;;;;;;;17.27;8.65;;;;;;;;;;5061286;28;20024;-81
2023/05/09 14:17:54;;;;;;;17.27;8.02;;;;;;;;;;5082224;28;20036;-81
2023/05/09 14:20:20;;;;;;;18.92;7.35;;;;;;;;;;5066801;28;20029;-83
2023/05/09 14:22:45;;;;;;;22.35;8.57;;;;;;;;;;5066080;28;20457;-82
2023/05/09 14:25:11;;;;;;;15.55;7.68;;;;;;;;;;5084247;28;20047;-80
2023/05/09 14:27:36;;;;;;;19.30;8.07;;;;;;;;;;5081041;28;20043;-84
2023/05/09 14:30:05;;;;;;;21.08;8.00;;;;;;;;;;5083006;28;20033;-83
2023/05/09 14:32:31;;;;;;;17.83;8.13;;;;;;;;;;5082149;28;20117;-83
2023/05/09 14:34:56;;;;;;;28.70;8.43;;;;;;;;;;5080963;28;20103;-83